sensor_id;sensor_type;location;lat;lon;timestamp;pressure;altitude;pressure_sealevel;temperature;humidity
20987;BME280;10652;50.306;8.570;2023-05-08T00:03:55;98364.94;;;12.03;95.53
20987;BME280;10652;50.306;8.570;2023-05-08T00:07:58;98358.16;;;11.98;96.06
20987;BME280;10652;50.306;8.570;2023-05-08T00:12:03;98355.75;;;11.93;97.13
20987;BME280;10652;50.306;8.570;2023-05-08T00:16:07;98355.13;;;11.88;97.92
20987;BME280;10652;50.306;8.570;2023-05-08T00:20:10;98356.66;;;11.92;98.02
20987;BME280;10652;50.306;8.570;2023-05-08T00:24:13;98354.09;;;11.91;98.57
20987;BME280;10652;50.306;8.570;2023-05-08T00:28:15;98361.50;;;12.01;98.47
20987;BME280;10652;50.306;8.570;2023-05-08T00:32:17;98360.13;;;12.11;98.21
20987;BME280;10652;50.306;8.570;2023-05-08T00:36:20;98354.22;;;12.25;97.66
20987;BME280;10652;50.306;8.570;2023-05-08T00:40:22;98363.59;;;12.31;96.76
20987;BME280;10652;50.306;8.570;2023-05-08T00:44:24;98366.63;;;12.40;97.12
20987;BME280;10652;50.306;8.570;2023-05-08T00:48:31;98360.38;;;12.43;94.63
20987;BME280;10652;50.306;8.570;2023-05-08T00:52:34;98363.59;;;12.31;95.26
20987;BME280;10652;50.306;8.570;2023-05-08T00:56:37;98368.56;;;12.37;95.24
20987;BME280;10652;50.306;8.570;2023-05-08T01:00:40;98356.63;;;12.30;94.93
20987;BME280;10652;50.306;8.570;2023-05-08T01:04:44;98357.59;;;12.27;95.01
20987;BME280;10652;50.306;8.570;2023-05-08T01:08:46;98361.69;;;12.15;94.59
20987;BME280;10652;50.306;8.570;2023-05-08T01:13:04;98357.56;;;12.10;95.44
20987;BME280;10652;50.306;8.570;2023-05-08T01:17:37;98361.34;;;12.04;95.89
20987;BME280;10652;50.306;8.570;2023-05-08T01:22:17;98361.66;;;11.98;96.07
20987;BME280;10652;50.306;8.570;2023-05-08T01:26:42;98373.47;;;11.90;96.10
20987;BME280;10652;50.306;8.570;2023-05-08T01:48:04;98366.19;;;11.39;100.00
20987;BME280;10652;50.306;8.570;2023-05-08T01:52:15;98379.34;;;11.39;100.00
20987;BME280;10652;50.306;8.570;2023-05-08T01:56:22;98371.25;;;11.43;100.00
20987;BME280;10652;50.306;8.570;2023-05-08T02:00:25;98376.44;;;11.45;100.00
20987;BME280;10652;50.306;8.570;2023-05-08T02:04:29;98381.88;;;11.60;100.00
20987;BME280;10652;50.306;8.570;2023-05-08T02:08:33;98386.25;;;11.60;99.31
20987;BME280;10652;50.306;8.570;2023-05-08T02:12:39;98383.34;;;11.47;99.46
20987;BME280;10652;50.306;8.570;2023-05-08T02:16:43;98389.78;;;11.40;99.04
20987;BME280;10652;50.306;8.570;2023-05-08T02:20:48;98383.31;;;11.28;100.00
20987;BME280;10652;50.306;8.570;2023-05-08T02:24:52;98391.34;;;11.25;100.00
20987;BME280;10652;50.306;8.570;2023-05-08T02:28:57;98383.06;;;11.14;100.00
20987;BME280;10652;50.306;8.570;2023-05-08T02:33:00;98379.75;;;11.09;100.00
20987;BME280;10652;50.306;8.570;2023-05-08T02:37:02;98388.50;;;11.10;100.00
20987;BME280;10652;50.306;8.570;2023-05-08T02:41:06;98391.94;;;11.12;100.00
20987;BME280;10652;50.306;8.570;2023-05-08T02:45:10;98398.19;;;11.29;100.00
20987;BME280;10652;50.306;8.570;2023-05-08T02:49:27;98398.53;;;11.41;100.00
20987;BME280;10652;50.306;8.570;2023-05-08T02:53:35;98398.41;;;11.44;100.00
20987;BME280;10652;50.306;8.570;2023-05-08T02:57:43;98403.59;;;11.45;99.33
20987;BME280;10652;50.306;8.570;2023-05-08T03:06:08;98400.47;;;11.37;97.40
20987;BME280;10652;50.306;8.570;2023-05-08T03:10:14;98393.63;;;11.33;97.37
20987;BME280;10652;50.306;8.570;2023-05-08T03:14:20;98398.19;;;11.29;97.47
20987;BME280;10652;50.306;8.570;2023-05-08T03:18:34;98399.50;;;11.19;96.47
20987;BME280;10652;50.306;8.570;2023-05-08T03:22:38;98398.16;;;11.09;96.98
20987;BME280;10652;50.306;8.570;2023-05-08T03:26:44;98392.72;;;10.93;98.11
20987;BME280;10652;50.306;8.570;2023-05-08T03:30:48;98401.84;;;10.85;99.15
20987;BME280;10652;50.306;8.570;2023-05-08T03:34:53;98403.53;;;10.86;99.33
20987;BME280;10652;50.306;8.570;2023-05-08T03:38:56;98398.81;;;10.74;99.76
20987;BME280;10652;50.306;8.570;2023-05-08T03:43:00;98398.81;;;10.74;100.00
20987;BME280;10652;50.306;8.570;2023-05-08T03:47:03;98400.19;;;10.82;100.00
20987;BME280;10652;50.306;8.570;2023-05-08T03:51:06;98404.41;;;10.86;100.00
20987;BME280;10652;50.306;8.570;2023-05-08T03:55:11;98405.41;;;10.84;100.00
20987;BME280;10652;50.306;8.570;2023-05-08T03:59:20;98403.16;;;10.95;100.00
20987;BME280;10652;50.306;8.570;2023-05-08T04:08:18;98400.00;;;10.87;99.76
20987;BME280;10652;50.306;8.570;2023-05-08T04:12:32;98405.84;;;10.73;99.45
20987;BME280;10652;50.306;8.570;2023-05-08T04:16:39;98405.56;;;10.59;100.00
20987;BME280;10652;50.306;8.570;2023-05-08T04:20:46;98415.66;;;10.48;100.00
20987;BME280;10652;50.306;8.570;2023-05-08T04:24:51;98411.44;;;10.44;100.00
20987;BME280;10652;50.306;8.570;2023-05-08T04:28:56;98412.78;;;10.32;100.00
20987;BME280;10652;50.306;8.570;2023-05-08T04:32:58;98425.38;;;10.24;100.00
20987;BME280;10652;50.306;8.570;2023-05-08T04:37:05;98417.19;;;10.10;100.00
20987;BME280;10652;50.306;8.570;2023-05-08T04:41:08;98422.56;;;10.07;100.00
20987;BME280;10652;50.306;8.570;2023-05-08T04:45:11;98419.81;;;10.10;100.00
20987;BME280;10652;50.306;8.570;2023-05-08T04:49:14;98439.00;;;10.12;100.00
20987;BME280;10652;50.306;8.570;2023-05-08T04:53:17;98433.28;;;10.23;100.00
20987;BME280;10652;50.306;8.570;2023-05-08T04:57:19;98433.94;;;10.29;100.00
20987;BME280;10652;50.306;8.570;2023-05-08T05:01:22;98432.22;;;10.28;100.00
20987;BME280;10652;50.306;8.570;2023-05-08T05:05:24;98442.16;;;10.20;100.00
20987;BME280;10652;50.306;8.570;2023-05-08T05:09:26;98441.44;;;10.17;100.00
20987;BME280;10652;50.306;8.570;2023-05-08T05:13:28;98445.16;;;10.11;100.00
20987;BME280;10652;50.306;8.570;2023-05-08T05:17:31;98446.88;;;10.12;100.00
20987;BME280;10652;50.306;8.570;2023-05-08T05:21:34;98450.91;;;10.21;100.00
20987;BME280;10652;50.306;8.570;2023-05-08T05:25:39;98454.56;;;10.38;100.00
20987;BME280;10652;50.306;8.570;2023-05-08T05:29:41;98453.34;;;10.47;100.00
20987;BME280;10652;50.306;8.570;2023-05-08T05:33:43;98460.06;;;10.32;100.00
20987;BME280;10652;50.306;8.570;2023-05-08T05:37:46;98474.00;;;10.34;100.00
20987;BME280;10652;50.306;8.570;2023-05-08T05:41:48;98469.47;;;10.38;100.00
20987;BME280;10652;50.306;8.570;2023-05-08T05:45:50;98464.72;;;10.47;100.00
20987;BME280;10652;50.306;8.570;2023-05-08T05:49:53;98474.31;;;10.48;100.00
20987;BME280;10652;50.306;8.570;2023-05-08T05:53:55;98473.00;;;10.59;100.00
20987;BME280;10652;50.306;8.570;2023-05-08T05:57:59;98471.19;;;10.61;100.00
20987;BME280;10652;50.306;8.570;2023-05-08T06:02:01;98474.34;;;10.47;100.00
20987;BME280;10652;50.306;8.570;2023-05-08T06:06:04;98470.72;;;10.49;100.00
20987;BME280;10652;50.306;8.570;2023-05-08T06:10:06;98481.56;;;10.64;100.00
20987;BME280;10652;50.306;8.570;2023-05-08T06:14:09;98488.03;;;10.77;100.00
20987;BME280;10652;50.306;8.570;2023-05-08T06:18:12;98490.06;;;10.70;100.00
20987;BME280;10652;50.306;8.570;2023-05-08T06:22:16;98486.06;;;10.82;100.00
20987;BME280;10652;50.306;8.570;2023-05-08T06:26:19;98495.72;;;11.03;100.00
20987;BME280;10652;50.306;8.570;2023-05-08T06:30:24;98485.22;;;11.23;100.00
20987;BME280;10652;50.306;8.570;2023-05-08T06:34:26;98495.50;;;11.29;100.00
20987;BME280;10652;50.306;8.570;2023-05-08T06:38:28;98494.13;;;11.21;100.00
20987;BME280;10652;50.306;8.570;2023-05-08T06:42:30;98496.94;;;11.16;99.71
20987;BME280;10652;50.306;8.570;2023-05-08T06:46:32;98499.16;;;11.04;99.55
20987;BME280;10652;50.306;8.570;2023-05-08T06:50:37;98493.56;;;10.91;99.46
20987;BME280;10652;50.306;8.570;2023-05-08T06:54:40;98501.06;;;10.80;100.00
20987;BME280;10652;50.306;8.570;2023-05-08T06:58:42;98504.06;;;10.71;100.00
20987;BME280;10652;50.306;8.570;2023-05-08T07:02:57;98494.41;;;10.71;100.00
20987;BME280;10652;50.306;8.570;2023-05-08T07:06:59;98495.97;;;10.75;100.00
20987;BME280;10652;50.306;8.570;2023-05-08T07:11:02;98501.97;;;10.79;100.00
20987;BME280;10652;50.306;8.570;2023-05-08T07:15:05;98496.09;;;10.72;100.00
20987;BME280;10652;50.306;8.570;2023-05-08T07:19:25;98497.88;;;10.72;100.00
20987;BME280;10652;50.306;8.570;2023-05-08T07:23:27;98491.31;;;10.82;100.00
20987;BME280;10652;50.306;8.570;2023-05-08T07:27:30;98493.72;;;11.08;100.00
20987;BME280;10652;50.306;8.570;2023-05-08T07:31:32;98493.34;;;11.17;100.00
20987;BME280;10652;50.306;8.570;2023-05-08T07:35:34;98498.50;;;11.41;100.00
20987;BME280;10652;50.306;8.570;2023-05-08T07:39:38;98501.59;;;11.50;100.00
20987;BME280;10652;50.306;8.570;2023-05-08T07:43:40;98494.81;;;11.45;100.00
20987;BME280;10652;50.306;8.570;2023-05-08T07:47:51;98493.78;;;11.49;100.00
20987;BME280;10652;50.306;8.570;2023-05-08T07:51:54;98492.53;;;11.57;100.00
20987;BME280;10652;50.306;8.570;2023-05-08T07:55:56;98495.41;;;11.51;100.00
20987;BME280;10652;50.306;8.570;2023-05-08T08:00:00;98495.22;;;11.56;100.00
20987;BME280;10652;50.306;8.570;2023-05-08T08:04:14;98497.59;;;11.62;100.00
20987;BME280;10652;50.306;8.570;2023-05-08T08:08:16;98497.19;;;11.51;100.00
20987;BME280;10652;50.306;8.570;2023-05-08T08:12:18;98495.34;;;11.53;100.00
20987;BME280;10652;50.306;8.570;2023-05-08T08:16:22;98497.94;;;11.73;100.00
20987;BME280;10652;50.306;8.570;2023-05-08T08:20:24;98498.28;;;12.04;100.00
20987;BME280;10652;50.306;8.570;2023-05-08T08:24:26;98491.59;;;12.35;100.00
20987;BME280;10652;50.306;8.570;2023-05-08T08:28:30;98491.63;;;12.53;100.00
20987;BME280;10652;50.306;8.570;2023-05-08T08:32:32;98501.78;;;12.61;100.00
20987;BME280;10652;50.306;8.570;2023-05-08T08:36:34;98500.56;;;12.49;100.00
20987;BME280;10652;50.306;8.570;2023-05-08T08:40:40;98493.97;;;12.41;100.00
20987;BME280;10652;50.306;8.570;2023-05-08T08:44:42;98506.59;;;12.53;100.00
20987;BME280;10652;50.306;8.570;2023-05-08T08:48:45;98506.56;;;12.34;100.00
20987;BME280;10652;50.306;8.570;2023-05-08T08:52:55;98509.41;;;12.30;100.00
20987;BME280;10652;50.306;8.570;2023-05-08T08:57:00;98511.22;;;12.09;100.00
20987;BME280;10652;50.306;8.570;2023-05-08T09:01:06;98511.66;;;12.00;100.00
20987;BME280;10652;50.306;8.570;2023-05-08T09:05:09;98520.28;;;12.22;100.00
20987;BME280;10652;50.306;8.570;2023-05-08T09:09:12;98519.94;;;12.30;100.00
20987;BME280;10652;50.306;8.570;2023-05-08T09:13:14;98521.38;;;12.37;100.00
20987;BME280;10652;50.306;8.570;2023-05-08T09:17:20;98513.34;;;12.40;100.00
20987;BME280;10652;50.306;8.570;2023-05-08T09:21:22;98517.88;;;12.55;100.00
20987;BME280;10652;50.306;8.570;2023-05-08T09:25:25;98522.25;;;12.56;100.00
20987;BME280;10652;50.306;8.570;2023-05-08T09:29:27;98516.81;;;12.59;100.00
20987;BME280;10652;50.306;8.570;2023-05-08T09:33:29;98527.34;;;12.78;100.00
20987;BME280;10652;50.306;8.570;2023-05-08T09:37:32;98529.75;;;12.82;100.00
20987;BME280;10652;50.306;8.570;2023-05-08T09:41:34;98534.72;;;12.88;100.00
20987;BME280;10652;50.306;8.570;2023-05-08T09:45:36;98544.03;;;12.95;100.00
20987;BME280;10652;50.306;8.570;2023-05-08T09:49:59;98546.22;;;12.87;100.00
20987;BME280;10652;50.306;8.570;2023-05-08T09:54:02;98542.81;;;12.85;100.00
20987;BME280;10652;50.306;8.570;2023-05-08T09:58:07;98548.31;;;12.62;100.00
20987;BME280;10652;50.306;8.570;2023-05-08T10:02:10;98546.00;;;12.73;100.00
20987;BME280;10652;50.306;8.570;2023-05-08T10:06:14;98544.94;;;12.77;100.00
20987;BME280;10652;50.306;8.570;2023-05-08T10:10:22;98537.59;;;12.84;100.00
20987;BME280;10652;50.306;8.570;2023-05-08T10:14:26;98538.94;;;13.09;100.00
20987;BME280;10652;50.306;8.570;2023-05-08T10:18:30;98537.19;;;13.27;100.00
20987;BME280;10652;50.306;8.570;2023-05-08T10:22:36;98535.97;;;13.51;100.00
20987;BME280;10652;50.306;8.570;2023-05-08T10:26:42;98522.28;;;13.78;97.06
20987;BME280;10652;50.306;8.570;2023-05-08T10:31:06;98529.06;;;13.66;96.05
20987;BME280;10652;50.306;8.570;2023-05-08T10:35:10;98523.13;;;13.78;97.84
20987;BME280;10652;50.306;8.570;2023-05-08T10:39:16;98521.56;;;13.91;98.08
20987;BME280;10652;50.306;8.570;2023-05-08T10:43:19;98523.78;;;13.99;97.40
20987;BME280;10652;50.306;8.570;2023-05-08T10:47:29;98518.16;;;14.38;99.42
20987;BME280;10652;50.306;8.570;2023-05-08T10:53:09;98522.03;;;14.79;93.93
20987;BME280;10652;50.306;8.570;2023-05-08T10:56:37;98529.00;;;15.12;90.83
20987;BME280;10652;50.306;8.570;2023-05-08T11:05:14;98517.72;;;15.82;82.88
20987;BME280;10652;50.306;8.570;2023-05-08T11:09:27;98511.59;;;16.24;81.74
20987;BME280;10652;50.306;8.570;2023-05-08T11:13:32;98516.19;;;16.63;78.38
20987;BME280;10652;50.306;8.570;2023-05-08T11:17:38;98517.78;;;16.80;75.03
20987;BME280;10652;50.306;8.570;2023-05-08T11:26:17;98508.16;;;16.50;74.03
20987;BME280;10652;50.306;8.570;2023-05-08T11:30:21;98506.94;;;16.56;76.03
20987;BME280;10652;50.306;8.570;2023-05-08T11:39:05;98504.47;;;17.21;75.69
20987;BME280;10652;50.306;8.570;2023-05-08T11:43:22;98508.06;;;17.32;74.69
20987;BME280;10652;50.306;8.570;2023-05-08T11:47:34;98509.06;;;17.04;73.19
20987;BME280;10652;50.306;8.570;2023-05-08T11:51:37;98509.28;;;17.01;74.08
20987;BME280;10652;50.306;8.570;2023-05-08T11:55:40;98513.72;;;17.01;74.82
20987;BME280;10652;50.306;8.570;2023-05-08T11:59:42;98510.72;;;16.93;72.78
20987;BME280;10652;50.306;8.570;2023-05-08T12:03:44;98509.06;;;16.78;73.52
20987;BME280;10652;50.306;8.570;2023-05-08T12:07:47;98515.22;;;16.78;75.39
20987;BME280;10652;50.306;8.570;2023-05-08T12:11:55;98509.78;;;16.94;75.45
20987;BME280;10652;50.306;8.570;2023-05-08T12:15:59;98508.66;;;16.84;72.37
20987;BME280;10652;50.306;8.570;2023-05-08T12:20:17;98508.34;;;16.61;73.41
20987;BME280;10652;50.306;8.570;2023-05-08T12:24:20;98506.44;;;16.63;74.59
20987;BME280;10652;50.306;8.570;2023-05-08T12:28:26;98510.56;;;16.82;74.75
20987;BME280;10652;50.306;8.570;2023-05-08T12:32:28;98509.66;;;16.95;74.07
20987;BME280;10652;50.306;8.570;2023-05-08T12:36:37;98505.16;;;17.10;72.41
20987;BME280;10652;50.306;8.570;2023-05-08T12:40:43;98499.63;;;17.13;73.02
20987;BME280;10652;50.306;8.570;2023-05-08T12:44:49;98497.41;;;17.46;72.14
20987;BME280;10652;50.306;8.570;2023-05-08T12:48:59;98494.03;;;17.57;71.23
20987;BME280;10652;50.306;8.570;2023-05-08T12:53:07;98494.91;;;17.58;69.41
20987;BME280;10652;50.306;8.570;2023-05-08T12:57:11;98494.44;;;17.64;70.13
20987;BME280;10652;50.306;8.570;2023-05-08T13:01:13;98493.50;;;17.90;70.57
20987;BME280;10652;50.306;8.570;2023-05-08T13:05:19;98488.28;;;18.14;68.95
20987;BME280;10652;50.306;8.570;2023-05-08T13:09:21;98488.63;;;17.96;68.75
20987;BME280;10652;50.306;8.570;2023-05-08T13:13:29;98486.69;;;17.73;69.14
20987;BME280;10652;50.306;8.570;2023-05-08T13:17:31;98489.38;;;17.98;69.94
20987;BME280;10652;50.306;8.570;2023-05-08T13:21:33;98473.41;;;18.11;68.73
20987;BME280;10652;50.306;8.570;2023-05-08T13:25:36;98477.66;;;18.01;68.64
20987;BME280;10652;50.306;8.570;2023-05-08T13:29:38;98477.88;;;17.73;69.35
20987;BME280;10652;50.306;8.570;2023-05-08T13:33:40;98474.56;;;17.94;70.30
20987;BME280;10652;50.306;8.570;2023-05-08T13:37:43;98471.28;;;18.16;70.27
20987;BME280;10652;50.306;8.570;2023-05-08T13:41:45;98474.06;;;18.02;68.78
20987;BME280;10652;50.306;8.570;2023-05-08T13:45:47;98461.72;;;17.88;68.38
20987;BME280;10652;50.306;8.570;2023-05-08T13:49:49;98459.16;;;18.12;69.95
20987;BME280;10652;50.306;8.570;2023-05-08T13:53:51;98452.91;;;18.50;67.53
20987;BME280;10652;50.306;8.570;2023-05-08T13:57:53;98447.56;;;18.62;67.33
20987;BME280;10652;50.306;8.570;2023-05-08T14:01:55;98452.34;;;18.81;66.35
20987;BME280;10652;50.306;8.570;2023-05-08T14:05:57;98452.00;;;19.09;64.73
20987;BME280;10652;50.306;8.570;2023-05-08T14:09:59;98436.88;;;19.10;64.46
20987;BME280;10652;50.306;8.570;2023-05-08T14:14:01;98437.50;;;19.13;63.40
20987;BME280;10652;50.306;8.570;2023-05-08T14:18:03;98429.06;;;19.30;63.65
20987;BME280;10652;50.306;8.570;2023-05-08T14:22:05;98431.38;;;19.35;60.42
20987;BME280;10652;50.306;8.570;2023-05-08T14:26:07;98431.88;;;19.05;62.75
20987;BME280;10652;50.306;8.570;2023-05-08T14:30:10;98425.78;;;19.16;62.03
20987;BME280;10652;50.306;8.570;2023-05-08T14:34:12;98428.88;;;19.45;62.76
20987;BME280;10652;50.306;8.570;2023-05-08T14:38:14;98418.72;;;19.72;62.84
20987;BME280;10652;50.306;8.570;2023-05-08T14:42:16;98413.56;;;20.15;60.68
20987;BME280;10652;50.306;8.570;2023-05-08T14:46:24;98410.00;;;20.37;55.95
20987;BME280;10652;50.306;8.570;2023-05-08T14:50:26;98410.03;;;20.14;56.91
20987;BME280;10652;50.306;8.570;2023-05-08T14:54:28;98409.09;;;19.93;57.38
20987;BME280;10652;50.306;8.570;2023-05-08T14:58:31;98407.72;;;19.99;57.72
20987;BME280;10652;50.306;8.570;2023-05-08T15:02:33;98408.59;;;19.99;57.83
20987;BME280;10652;50.306;8.570;2023-05-08T15:06:36;98400.34;;;19.80;56.08
20987;BME280;10652;50.306;8.570;2023-05-08T15:10:40;98391.59;;;19.78;55.92
20987;BME280;10652;50.306;8.570;2023-05-08T15:14:42;98398.25;;;19.72;57.18
20987;BME280;10652;50.306;8.570;2023-05-08T15:18:44;98397.06;;;19.65;57.21
20987;BME280;10652;50.306;8.570;2023-05-08T15:22:47;98392.78;;;19.41;57.76
20987;BME280;10652;50.306;8.570;2023-05-08T15:26:49;98395.44;;;19.29;57.95
20987;BME280;10652;50.306;8.570;2023-05-08T15:30:51;98396.38;;;19.28;59.15
20987;BME280;10652;50.306;8.570;2023-05-08T15:34:53;98395.16;;;19.21;60.98
20987;BME280;10652;50.306;8.570;2023-05-08T15:38:55;98395.66;;;19.26;61.25
20987;BME280;10652;50.306;8.570;2023-05-08T15:42:57;98396.63;;;19.25;61.32
20987;BME280;10652;50.306;8.570;2023-05-08T15:46:59;98400.13;;;19.26;61.76
20987;BME280;10652;50.306;8.570;2023-05-08T15:51:01;98399.06;;;19.28;62.46
20987;BME280;10652;50.306;8.570;2023-05-08T15:55:04;98392.53;;;19.33;63.02
20987;BME280;10652;50.306;8.570;2023-05-08T15:59:06;98394.13;;;19.46;62.38
20987;BME280;10652;50.306;8.570;2023-05-08T16:03:08;98397.03;;;19.43;61.48
20987;BME280;10652;50.306;8.570;2023-05-08T16:07:10;98409.09;;;19.25;62.48
20987;BME280;10652;50.306;8.570;2023-05-08T16:11:12;98420.22;;;19.19;62.63
20987;BME280;10652;50.306;8.570;2023-05-08T16:15:14;98421.00;;;19.08;62.88
20987;BME280;10652;50.306;8.570;2023-05-08T16:19:16;98414.47;;;19.12;63.46
20987;BME280;10652;50.306;8.570;2023-05-08T16:23:18;98410.66;;;19.16;63.23
20987;BME280;10652;50.306;8.570;2023-05-08T16:27:20;98403.81;;;19.12;63.91
20987;BME280;10652;50.306;8.570;2023-05-08T16:31:22;98405.34;;;19.16;64.72
20987;BME280;10652;50.306;8.570;2023-05-08T16:35:24;98398.06;;;19.18;64.61
20987;BME280;10652;50.306;8.570;2023-05-08T16:39:26;98396.69;;;19.13;64.65
20987;BME280;10652;50.306;8.570;2023-05-08T16:43:28;98397.81;;;19.21;65.16
20987;BME280;10652;50.306;8.570;2023-05-08T16:47:31;98397.09;;;19.30;64.97
20987;BME280;10652;50.306;8.570;2023-05-08T16:51:33;98386.13;;;19.46;64.06
20987;BME280;10652;50.306;8.570;2023-05-08T16:55:35;98387.69;;;19.38;63.60
20987;BME280;10652;50.306;8.570;2023-05-08T16:59:37;98386.94;;;19.24;63.86
20987;BME280;10652;50.306;8.570;2023-05-08T17:03:39;98385.75;;;19.05;64.12
20987;BME280;10652;50.306;8.570;2023-05-08T17:07:41;98386.78;;;18.80;64.23
20987;BME280;10652;50.306;8.570;2023-05-08T17:11:43;98382.59;;;18.65;65.32
20987;BME280;10652;50.306;8.570;2023-05-08T17:15:45;98380.69;;;18.43;66.20
20987;BME280;10652;50.306;8.570;2023-05-08T17:19:47;98385.94;;;18.19;67.90
20987;BME280;10652;50.306;8.570;2023-05-08T17:23:49;98386.41;;;18.01;69.25
20987;BME280;10652;50.306;8.570;2023-05-08T17:27:51;98387.06;;;17.91;70.36
20987;BME280;10652;50.306;8.570;2023-05-08T17:31:53;98387.63;;;17.84;71.63
20987;BME280;10652;50.306;8.570;2023-05-08T17:35:56;98377.34;;;17.67;72.67
20987;BME280;10652;50.306;8.570;2023-05-08T17:39:58;98397.22;;;17.48;74.80
20987;BME280;10652;50.306;8.570;2023-05-08T17:44:00;98402.06;;;17.29;76.59
20987;BME280;10652;50.306;8.570;2023-05-08T17:48:03;98398.97;;;17.10;77.60
20987;BME280;10652;50.306;8.570;2023-05-08T17:52:05;98396.06;;;17.00;78.30
20987;BME280;10652;50.306;8.570;2023-05-08T17:56:08;98403.81;;;16.91;79.31
20987;BME280;10652;50.306;8.570;2023-05-08T18:00:10;98409.53;;;16.85;80.28
20987;BME280;10652;50.306;8.570;2023-05-08T18:04:13;98410.88;;;16.78;80.77
20987;BME280;10652;50.306;8.570;2023-05-08T18:08:15;98410.75;;;16.67;81.33
20987;BME280;10652;50.306;8.570;2023-05-08T18:12:17;98409.44;;;16.59;82.34
20987;BME280;10652;50.306;8.570;2023-05-08T18:16:20;98404.44;;;16.55;82.77
20987;BME280;10652;50.306;8.570;2023-05-08T18:20:23;98400.66;;;16.45;83.14
20987;BME280;10652;50.306;8.570;2023-05-08T18:24:25;98402.31;;;16.33;83.83
20987;BME280;10652;50.306;8.570;2023-05-08T18:28:27;98406.50;;;16.23;84.15
20987;BME280;10652;50.306;8.570;2023-05-08T18:32:29;98414.09;;;16.15;85.03
20987;BME280;10652;50.306;8.570;2023-05-08T18:36:31;98422.34;;;16.10;85.54
20987;BME280;10652;50.306;8.570;2023-05-08T18:40:34;98418.69;;;15.99;85.76
20987;BME280;10652;50.306;8.570;2023-05-08T18:44:36;98421.91;;;15.90;86.59
20987;BME280;10652;50.306;8.570;2023-05-08T18:48:39;98426.22;;;15.76;87.13
20987;BME280;10652;50.306;8.570;2023-05-08T18:52:41;98424.00;;;15.70;87.79
20987;BME280;10652;50.306;8.570;2023-05-08T18:56:44;98424.16;;;15.67;88.02
20987;BME280;10652;50.306;8.570;2023-05-08T19:00:46;98424.56;;;15.61;88.54
20987;BME280;10652;50.306;8.570;2023-05-08T19:04:48;98430.19;;;15.55;89.25
20987;BME280;10652;50.306;8.570;2023-05-08T19:08:50;98430.66;;;15.48;89.20
20987;BME280;10652;50.306;8.570;2023-05-08T19:12:53;98432.44;;;15.47;89.81
20987;BME280;10652;50.306;8.570;2023-05-08T19:16:55;98426.28;;;15.47;89.40
20987;BME280;10652;50.306;8.570;2023-05-08T19:21:00;98429.81;;;15.47;89.74
20987;BME280;10652;50.306;8.570;2023-05-08T19:25:02;98426.28;;;15.47;89.35
20987;BME280;10652;50.306;8.570;2023-05-08T19:29:04;98417.50;;;15.46;89.41
20987;BME280;10652;50.306;8.570;2023-05-08T19:33:06;98411.63;;;15.41;89.37
20987;BME280;10652;50.306;8.570;2023-05-08T19:37:08;98419.00;;;15.36;89.73
20987;BME280;10652;50.306;8.570;2023-05-08T19:41:10;98417.31;;;15.35;89.65
20987;BME280;10652;50.306;8.570;2023-05-08T19:45:12;98415.97;;;15.28;89.72
20987;BME280;10652;50.306;8.570;2023-05-08T19:49:16;98414.38;;;15.25;89.97
20987;BME280;10652;50.306;8.570;2023-05-08T19:53:19;98408.38;;;15.22;90.07
20987;BME280;10652;50.306;8.570;2023-05-08T19:57:21;98409.50;;;15.18;90.30
20987;BME280;10652;50.306;8.570;2023-05-08T20:01:23;98407.72;;;15.18;90.80
20987;BME280;10652;50.306;8.570;2023-05-08T20:05:25;98402.69;;;15.14;90.83
20987;BME280;10652;50.306;8.570;2023-05-08T20:09:27;98400.44;;;15.08;90.99
20987;BME280;10652;50.306;8.570;2023-05-08T20:13:29;98405.81;;;15.06;91.57
20987;BME280;10652;50.306;8.570;2023-05-08T20:17:31;98398.16;;;15.02;91.64
20987;BME280;10652;50.306;8.570;2023-05-08T20:21:33;98409.28;;;14.93;91.98
20987;BME280;10652;50.306;8.570;2023-05-08T20:25:35;98413.72;;;14.92;92.61
20987;BME280;10652;50.306;8.570;2023-05-08T20:29:37;98416.28;;;14.94;93.27
20987;BME280;10652;50.306;8.570;2023-05-08T20:33:39;98415.91;;;15.00;92.60
20987;BME280;10652;50.306;8.570;2023-05-08T20:37:42;98407.81;;;15.03;92.66
20987;BME280;10652;50.306;8.570;2023-05-08T20:41:45;98407.97;;;15.00;92.37
20987;BME280;10652;50.306;8.570;2023-05-08T20:45:47;98413.53;;;14.95;93.02
20987;BME280;10652;50.306;8.570;2023-05-08T20:49:50;98415.50;;;14.92;92.74
20987;BME280;10652;50.306;8.570;2023-05-08T20:53:52;98420.03;;;14.89;93.40
20987;BME280;10652;50.306;8.570;2023-05-08T20:57:54;98404.25;;;14.88;93.46
20987;BME280;10652;50.306;8.570;2023-05-08T21:01:56;98406.13;;;14.86;93.40
20987;BME280;10652;50.306;8.570;2023-05-08T21:05:58;98400.34;;;14.79;93.71
20987;BME280;10652;50.306;8.570;2023-05-08T21:10:00;98400.50;;;14.76;94.04
20987;BME280;10652;50.306;8.570;2023-05-08T21:14:02;98390.31;;;14.70;94.83
20987;BME280;10652;50.306;8.570;2023-05-08T21:18:04;98387.81;;;14.67;94.84
20987;BME280;10652;50.306;8.570;2023-05-08T21:22:06;98381.88;;;14.64;95.14
20987;BME280;10652;50.306;8.570;2023-05-08T21:26:10;98380.34;;;14.60;95.52
20987;BME280;10652;50.306;8.570;2023-05-08T21:30:12;98387.44;;;14.59;95.91
20987;BME280;10652;50.306;8.570;2023-05-08T21:34:17;98382.28;;;14.56;96.06
20987;BME280;10652;50.306;8.570;2023-05-08T21:38:22;98385.94;;;14.54;96.57
20987;BME280;10652;50.306;8.570;2023-05-08T21:42:24;98387.66;;;14.55;96.95
20987;BME280;10652;50.306;8.570;2023-05-08T21:46:26;98376.22;;;14.54;96.89
20987;BME280;10652;50.306;8.570;2023-05-08T21:50:28;98363.19;;;14.51;97.14
20987;BME280;10652;50.306;8.570;2023-05-08T21:54:30;98366.03;;;14.48;97.40
20987;BME280;10652;50.306;8.570;2023-05-08T21:58:32;98364.50;;;14.44;98.00
20987;BME280;10652;50.306;8.570;2023-05-08T22:02:35;98351.63;;;14.38;98.31
20987;BME280;10652;50.306;8.570;2023-05-08T22:06:37;98361.44;;;14.36;98.67
20987;BME280;10652;50.306;8.570;2023-05-08T22:10:39;98354.72;;;14.30;99.08